map of USM home
USM - Airport
Location
City:  Koh Samui, Nakhon Si Thammarat, Thailand
ICAO:VTSM
IATA:USM

Details
Type:Airport (Aerodrome, Airfield)
Use:Public/Civil
Latitude:932'52"N (9.547794)
Longitude:10003'44"E (100.062272)
Datum:WGS 1984
Elevation:64 ft (20 m)
Variation:0.39W (WMM2015 magnetic declination)
0.01 annual change
Runways:1
Longest:6759 × 148 ft (2060 × 45 m), paved

Time
Time Zone:UTC+7
Local Time:

Weather
METAR:VTSM 260830Z 27013KT 8000 VCSH FEW018 FEW020TCU 30/24 Q1006
TAF:VTSM 260500Z 2606/2706 22012KT 9999 FEW020 SCT100
TEMPO 2606/2612 VRB15KT 6000 -TSRA FEW016CB SCT018 BKN100
BECMG 2612/2614 00000KT
BECMG 2701/2703 26010KT

Related Locations
Nearby:
Farthest:CHM: 12348 mi / 19871 km
Chimbote [Teniente FAP Jaime A. de Montrevil Morales], ANC, PE

Find:

   beyond  
but within

Other Information
Maps:
NOTAMs:
Links:
Sources:

  
flag of Thailand   

Sectional Chart

Flight Planning
at skyvector.com

Satellite Image

Google Maps Satellite view

 

Copyright © 2004-2017 Karl L. Swartz. All rights reserved.
The Great Circle Mapper name and logo are trademarks of the Great Circle Mapper.
All other trademarks mentioned herein belong to their respective owners.
Please see credits for attibutions and further copyright information.

  Follow gcmap on Facebook Follow gcmap on Twitter Follow gcmap on Google+ GCmap on LinkedIn

hCard Microformat

Geo Microformat